sensor_id;sensor_type;location;lat;lon;timestamp;P1;durP1;ratioP1;P2;durP2;ratioP2
18711;SDS011;9485;49.386;8.674;2023-02-08T00:01:16;9.67;;;7.07;;
18711;SDS011;9485;49.386;8.674;2023-02-08T00:06:40;9.43;;;6.93;;
18711;SDS011;9485;49.386;8.674;2023-02-08T00:12:01;10.47;;;7.13;;
18711;SDS011;9485;49.386;8.674;2023-02-08T00:17:22;12.17;;;7.17;;
18711;SDS011;9485;49.386;8.674;2023-02-08T00:22:43;10.87;;;6.93;;
18711;SDS011;9485;49.386;8.674;2023-02-08T00:28:04;9.93;;;6.97;;
18711;SDS011;9485;49.386;8.674;2023-02-08T00:33:27;11.53;;;7.57;;
18711;SDS011;9485;49.386;8.674;2023-02-08T00:38:48;13.87;;;7.40;;
18711;SDS011;9485;49.386;8.674;2023-02-08T00:44:09;11.93;;;7.53;;
18711;SDS011;9485;49.386;8.674;2023-02-08T00:49:31;12.47;;;7.40;;
18711;SDS011;9485;49.386;8.674;2023-02-08T00:54:51;12.10;;;6.83;;
18711;SDS011;9485;49.386;8.674;2023-02-08T01:00:12;10.57;;;6.87;;
18711;SDS011;9485;49.386;8.674;2023-02-08T01:05:37;12.30;;;7.13;;
18711;SDS011;9485;49.386;8.674;2023-02-08T01:11:01;10.00;;;6.77;;
18711;SDS011;9485;49.386;8.674;2023-02-08T01:16:26;9.57;;;6.40;;
18711;SDS011;9485;49.386;8.674;2023-02-08T01:21:50;9.50;;;6.53;;
18711;SDS011;9485;49.386;8.674;2023-02-08T01:27:10;11.57;;;7.60;;
18711;SDS011;9485;49.386;8.674;2023-02-08T01:32:31;9.10;;;6.33;;
18711;SDS011;9485;49.386;8.674;2023-02-08T01:37:55;10.60;;;6.63;;
18711;SDS011;9485;49.386;8.674;2023-02-08T01:43:19;9.07;;;6.03;;
18711;SDS011;9485;49.386;8.674;2023-02-08T01:48:44;11.13;;;6.70;;
18711;SDS011;9485;49.386;8.674;2023-02-08T01:54:06;9.97;;;6.27;;
18711;SDS011;9485;49.386;8.674;2023-02-08T01:59:31;9.23;;;6.53;;
18711;SDS011;9485;49.386;8.674;2023-02-08T02:04:58;10.00;;;6.17;;
18711;SDS011;9485;49.386;8.674;2023-02-08T02:10:24;10.03;;;6.27;;
18711;SDS011;9485;49.386;8.674;2023-02-08T02:15:47;9.17;;;6.37;;
18711;SDS011;9485;49.386;8.674;2023-02-08T02:21:18;8.77;;;6.43;;
18711;SDS011;9485;49.386;8.674;2023-02-08T02:27:21;8.23;;;6.37;;
18711;SDS011;9485;49.386;8.674;2023-02-08T02:33:00;10.03;;;6.97;;
18711;SDS011;9485;49.386;8.674;2023-02-08T02:38:35;10.90;;;6.77;;
18711;SDS011;9485;49.386;8.674;2023-02-08T02:44:12;10.43;;;6.60;;
18711;SDS011;9485;49.386;8.674;2023-02-08T02:49:46;11.20;;;7.23;;
18711;SDS011;9485;49.386;8.674;2023-02-08T02:55:13;9.07;;;6.50;;
18711;SDS011;9485;49.386;8.674;2023-02-08T03:00:43;9.60;;;6.87;;
18711;SDS011;9485;49.386;8.674;2023-02-08T03:06:13;8.17;;;6.23;;
18711;SDS011;9485;49.386;8.674;2023-02-08T03:11:49;9.77;;;5.87;;
18711;SDS011;9485;49.386;8.674;2023-02-08T03:17:25;9.30;;;6.70;;
18711;SDS011;9485;49.386;8.674;2023-02-08T03:23:01;9.83;;;6.50;;
18711;SDS011;9485;49.386;8.674;2023-02-08T03:28:33;11.00;;;6.80;;
18711;SDS011;9485;49.386;8.674;2023-02-08T03:34:04;9.37;;;6.77;;
18711;SDS011;9485;49.386;8.674;2023-02-08T03:39:34;11.57;;;7.27;;
18711;SDS011;9485;49.386;8.674;2023-02-08T03:45:00;8.80;;;6.60;;
18711;SDS011;9485;49.386;8.674;2023-02-08T03:50:27;12.83;;;7.27;;
18711;SDS011;9485;49.386;8.674;2023-02-08T03:55:54;10.60;;;6.63;;
18711;SDS011;9485;49.386;8.674;2023-02-08T04:01:22;9.80;;;6.37;;
18711;SDS011;9485;49.386;8.674;2023-02-08T04:06:49;10.83;;;6.10;;
18711;SDS011;9485;49.386;8.674;2023-02-08T04:12:11;10.70;;;6.43;;
18711;SDS011;9485;49.386;8.674;2023-02-08T04:17:32;8.20;;;6.67;;
18711;SDS011;9485;49.386;8.674;2023-02-08T04:22:52;12.17;;;6.97;;
18711;SDS011;9485;49.386;8.674;2023-02-08T04:28:14;11.67;;;6.73;;
18711;SDS011;9485;49.386;8.674;2023-02-08T04:33:34;11.07;;;7.40;;
18711;SDS011;9485;49.386;8.674;2023-02-08T04:38:55;9.77;;;7.33;;
18711;SDS011;9485;49.386;8.674;2023-02-08T04:44:17;10.73;;;6.80;;
18711;SDS011;9485;49.386;8.674;2023-02-08T04:49:38;10.47;;;7.80;;
18711;SDS011;9485;49.386;8.674;2023-02-08T04:54:59;10.07;;;7.23;;
18711;SDS011;9485;49.386;8.674;2023-02-08T05:00:22;9.10;;;6.60;;
18711;SDS011;9485;49.386;8.674;2023-02-08T05:05:42;10.57;;;6.37;;
18711;SDS011;9485;49.386;8.674;2023-02-08T05:11:02;10.97;;;7.40;;
18711;SDS011;9485;49.386;8.674;2023-02-08T05:16:25;9.23;;;6.80;;
18711;SDS011;9485;49.386;8.674;2023-02-08T05:21:45;10.50;;;6.77;;
18711;SDS011;9485;49.386;8.674;2023-02-08T05:27:06;13.17;;;7.23;;
18711;SDS011;9485;49.386;8.674;2023-02-08T05:32:27;9.07;;;6.43;;
18711;SDS011;9485;49.386;8.674;2023-02-08T05:37:48;8.93;;;7.03;;
18711;SDS011;9485;49.386;8.674;2023-02-08T05:43:08;12.37;;;7.57;;
18711;SDS011;9485;49.386;8.674;2023-02-08T05:48:31;8.73;;;6.77;;
18711;SDS011;9485;49.386;8.674;2023-02-08T05:53:52;11.10;;;7.10;;
18711;SDS011;9485;49.386;8.674;2023-02-08T05:59:12;13.47;;;7.53;;
18711;SDS011;9485;49.386;8.674;2023-02-08T06:04:34;8.83;;;6.93;;
18711;SDS011;9485;49.386;8.674;2023-02-08T06:09:55;11.13;;;6.87;;
18711;SDS011;9485;49.386;8.674;2023-02-08T06:15:15;10.47;;;7.60;;
18711;SDS011;9485;49.386;8.674;2023-02-08T06:20:38;11.47;;;7.17;;
18711;SDS011;9485;49.386;8.674;2023-02-08T06:25:58;9.63;;;7.00;;
18711;SDS011;9485;49.386;8.674;2023-02-08T06:31:19;9.97;;;6.97;;
18711;SDS011;9485;49.386;8.674;2023-02-08T06:36:41;10.07;;;8.20;;
18711;SDS011;9485;49.386;8.674;2023-02-08T06:42:02;11.30;;;7.90;;
18711;SDS011;9485;49.386;8.674;2023-02-08T06:47:23;15.43;;;7.80;;
18711;SDS011;9485;49.386;8.674;2023-02-08T06:52:46;12.17;;;7.57;;
18711;SDS011;9485;49.386;8.674;2023-02-08T06:58:10;21.23;;;8.80;;
18711;SDS011;9485;49.386;8.674;2023-02-08T07:03:31;17.40;;;8.10;;
18711;SDS011;9485;49.386;8.674;2023-02-08T07:08:54;12.33;;;8.13;;
18711;SDS011;9485;49.386;8.674;2023-02-08T07:14:15;13.70;;;8.47;;
18711;SDS011;9485;49.386;8.674;2023-02-08T07:19:35;16.97;;;8.83;;
18711;SDS011;9485;49.386;8.674;2023-02-08T07:24:58;13.27;;;8.60;;
18711;SDS011;9485;49.386;8.674;2023-02-08T07:30:18;12.63;;;8.57;;
18711;SDS011;9485;49.386;8.674;2023-02-08T07:35:39;11.87;;;8.10;;
18711;SDS011;9485;49.386;8.674;2023-02-08T07:41:02;12.93;;;8.10;;
18711;SDS011;9485;49.386;8.674;2023-02-08T07:46:24;12.23;;;7.63;;
18711;SDS011;9485;49.386;8.674;2023-02-08T07:51:45;9.83;;;6.37;;
18711;SDS011;9485;49.386;8.674;2023-02-08T07:57:07;13.20;;;7.70;;
18711;SDS011;9485;49.386;8.674;2023-02-08T08:02:27;17.67;;;7.77;;
18711;SDS011;9485;49.386;8.674;2023-02-08T08:07:48;12.77;;;8.13;;
18711;SDS011;9485;49.386;8.674;2023-02-08T08:13:10;13.23;;;7.57;;
18711;SDS011;9485;49.386;8.674;2023-02-08T08:18:30;10.90;;;7.10;;
18711;SDS011;9485;49.386;8.674;2023-02-08T08:23:51;11.37;;;7.37;;
18711;SDS011;9485;49.386;8.674;2023-02-08T08:29:14;10.70;;;8.03;;
18711;SDS011;9485;49.386;8.674;2023-02-08T08:34:35;13.43;;;8.57;;
18711;SDS011;9485;49.386;8.674;2023-02-08T08:39:55;15.07;;;9.33;;
18711;SDS011;9485;49.386;8.674;2023-02-08T08:45:17;14.63;;;8.63;;
18711;SDS011;9485;49.386;8.674;2023-02-08T08:50:38;10.10;;;8.00;;
18711;SDS011;9485;49.386;8.674;2023-02-08T08:56:00;11.03;;;8.07;;
18711;SDS011;9485;49.386;8.674;2023-02-08T09:01:23;11.77;;;7.10;;
18711;SDS011;9485;49.386;8.674;2023-02-08T09:06:44;11.47;;;8.30;;
18711;SDS011;9485;49.386;8.674;2023-02-08T09:12:04;11.87;;;8.23;;
18711;SDS011;9485;49.386;8.674;2023-02-08T09:17:26;10.77;;;8.23;;
18711;SDS011;9485;49.386;8.674;2023-02-08T09:22:47;10.93;;;7.77;;
18711;SDS011;9485;49.386;8.674;2023-02-08T09:28:08;10.03;;;7.50;;
18711;SDS011;9485;49.386;8.674;2023-02-08T09:33:30;9.90;;;7.70;;
18711;SDS011;9485;49.386;8.674;2023-02-08T09:38:53;9.73;;;6.53;;
18711;SDS011;9485;49.386;8.674;2023-02-08T09:44:19;7.13;;;6.10;;
18711;SDS011;9485;49.386;8.674;2023-02-08T09:49:50;8.73;;;5.97;;
18711;SDS011;9485;49.386;8.674;2023-02-08T09:55:18;6.63;;;5.57;;
18711;SDS011;9485;49.386;8.674;2023-02-08T10:00:48;7.70;;;5.73;;
18711;SDS011;9485;49.386;8.674;2023-02-08T10:06:14;7.50;;;6.07;;
18711;SDS011;9485;49.386;8.674;2023-02-08T10:11:41;7.93;;;5.67;;
18711;SDS011;9485;49.386;8.674;2023-02-08T10:17:23;6.70;;;5.67;;
18711;SDS011;9485;49.386;8.674;2023-02-08T10:23:11;6.83;;;5.83;;
18711;SDS011;9485;49.386;8.674;2023-02-08T10:35:04;7.30;;;4.87;;
18711;SDS011;9485;49.386;8.674;2023-02-08T10:40:33;6.50;;;5.07;;
18711;SDS011;9485;49.386;8.674;2023-02-08T10:46:00;4.90;;;3.70;;
18711;SDS011;9485;49.386;8.674;2023-02-08T10:51:28;6.13;;;4.03;;
18711;SDS011;9485;49.386;8.674;2023-02-08T10:56:51;5.47;;;4.43;;
18711;SDS011;9485;49.386;8.674;2023-02-08T11:02:20;9.47;;;4.33;;
18711;SDS011;9485;49.386;8.674;2023-02-08T11:07:44;7.73;;;5.23;;
18711;SDS011;9485;49.386;8.674;2023-02-08T11:13:15;8.17;;;5.77;;
18711;SDS011;9485;49.386;8.674;2023-02-08T11:18:40;8.33;;;5.13;;
18711;SDS011;9485;49.386;8.674;2023-02-08T11:24:17;7.67;;;5.43;;
18711;SDS011;9485;49.386;8.674;2023-02-08T11:29:49;6.03;;;4.97;;
18711;SDS011;9485;49.386;8.674;2023-02-08T11:35:41;6.80;;;5.03;;
18711;SDS011;9485;49.386;8.674;2023-02-08T11:41:03;6.13;;;4.57;;
18711;SDS011;9485;49.386;8.674;2023-02-08T11:46:35;6.00;;;4.50;;
18711;SDS011;9485;49.386;8.674;2023-02-08T11:51:59;7.90;;;4.83;;
18711;SDS011;9485;49.386;8.674;2023-02-08T11:57:21;6.47;;;5.17;;
18711;SDS011;9485;49.386;8.674;2023-02-08T12:02:48;5.30;;;4.77;;
18711;SDS011;9485;49.386;8.674;2023-02-08T12:08:11;5.13;;;4.00;;
18711;SDS011;9485;49.386;8.674;2023-02-08T12:13:54;5.63;;;4.23;;
18711;SDS011;9485;49.386;8.674;2023-02-08T12:19:55;5.73;;;4.10;;
18711;SDS011;9485;49.386;8.674;2023-02-08T12:25:34;5.27;;;4.10;;
18711;SDS011;9485;49.386;8.674;2023-02-08T12:31:07;5.27;;;3.43;;
18711;SDS011;9485;49.386;8.674;2023-02-08T12:36:45;5.37;;;3.60;;
18711;SDS011;9485;49.386;8.674;2023-02-08T12:42:43;6.07;;;4.33;;
18711;SDS011;9485;49.386;8.674;2023-02-08T12:48:25;4.23;;;3.77;;
18711;SDS011;9485;49.386;8.674;2023-02-08T12:54:07;5.00;;;4.03;;
18711;SDS011;9485;49.386;8.674;2023-02-08T12:59:33;5.67;;;3.80;;
18711;SDS011;9485;49.386;8.674;2023-02-08T13:05:02;5.60;;;4.17;;
18711;SDS011;9485;49.386;8.674;2023-02-08T13:10:29;4.80;;;3.90;;
18711;SDS011;9485;49.386;8.674;2023-02-08T13:15:57;5.53;;;4.30;;
18711;SDS011;9485;49.386;8.674;2023-02-08T13:21:27;5.67;;;4.00;;
18711;SDS011;9485;49.386;8.674;2023-02-08T13:26:57;8.37;;;4.67;;
18711;SDS011;9485;49.386;8.674;2023-02-08T13:32:19;4.97;;;3.73;;
18711;SDS011;9485;49.386;8.674;2023-02-08T13:37:48;4.87;;;3.60;;
18711;SDS011;9485;49.386;8.674;2023-02-08T13:43:18;5.33;;;3.80;;
18711;SDS011;9485;49.386;8.674;2023-02-08T13:48:46;4.63;;;4.17;;
18711;SDS011;9485;49.386;8.674;2023-02-08T13:54:10;4.83;;;3.97;;
18711;SDS011;9485;49.386;8.674;2023-02-08T13:59:34;4.43;;;3.80;;
18711;SDS011;9485;49.386;8.674;2023-02-08T14:11:06;5.10;;;3.77;;
18711;SDS011;9485;49.386;8.674;2023-02-08T14:16:38;5.00;;;3.47;;
18711;SDS011;9485;49.386;8.674;2023-02-08T14:22:02;5.73;;;4.10;;
18711;SDS011;9485;49.386;8.674;2023-02-08T14:27:26;4.63;;;3.77;;
18711;SDS011;9485;49.386;8.674;2023-02-08T14:33:08;7.10;;;4.03;;
18711;SDS011;9485;49.386;8.674;2023-02-08T14:44:52;22.60;;;6.27;;
18711;SDS011;9485;49.386;8.674;2023-02-08T14:50:24;8.20;;;4.93;;
18711;SDS011;9485;49.386;8.674;2023-02-08T14:55:53;5.73;;;4.27;;
18711;SDS011;9485;49.386;8.674;2023-02-08T15:01:20;6.33;;;4.00;;
18711;SDS011;9485;49.386;8.674;2023-02-08T15:12:48;5.70;;;3.63;;
18711;SDS011;9485;49.386;8.674;2023-02-08T15:18:14;6.90;;;5.10;;
18711;SDS011;9485;49.386;8.674;2023-02-08T15:23:40;6.97;;;4.70;;
18711;SDS011;9485;49.386;8.674;2023-02-08T15:29:01;6.53;;;4.80;;
18711;SDS011;9485;49.386;8.674;2023-02-08T15:34:22;5.80;;;4.23;;
18711;SDS011;9485;49.386;8.674;2023-02-08T15:39:47;17.93;;;7.87;;
18711;SDS011;9485;49.386;8.674;2023-02-08T15:45:18;12.30;;;6.30;;
18711;SDS011;9485;49.386;8.674;2023-02-08T15:50:48;8.83;;;5.30;;
18711;SDS011;9485;49.386;8.674;2023-02-08T15:56:13;9.43;;;6.03;;
18711;SDS011;9485;49.386;8.674;2023-02-08T16:01:38;10.00;;;7.03;;
18711;SDS011;9485;49.386;8.674;2023-02-08T16:06:59;10.00;;;7.40;;
18711;SDS011;9485;49.386;8.674;2023-02-08T16:12:22;11.03;;;8.10;;
18711;SDS011;9485;49.386;8.674;2023-02-08T16:17:45;12.07;;;6.90;;
18711;SDS011;9485;49.386;8.674;2023-02-08T16:23:20;8.67;;;6.37;;
18711;SDS011;9485;49.386;8.674;2023-02-08T16:28:50;8.07;;;6.00;;
18711;SDS011;9485;49.386;8.674;2023-02-08T16:34:15;10.60;;;6.40;;
18711;SDS011;9485;49.386;8.674;2023-02-08T16:39:39;9.33;;;6.20;;
18711;SDS011;9485;49.386;8.674;2023-02-08T16:45:17;10.70;;;6.53;;
18711;SDS011;9485;49.386;8.674;2023-02-08T16:50:40;13.77;;;7.63;;
18711;SDS011;9485;49.386;8.674;2023-02-08T16:56:01;10.80;;;7.13;;
18711;SDS011;9485;49.386;8.674;2023-02-08T17:01:23;10.30;;;7.17;;
18711;SDS011;9485;49.386;8.674;2023-02-08T17:06:46;15.30;;;8.77;;
18711;SDS011;9485;49.386;8.674;2023-02-08T17:12:09;13.03;;;9.17;;
18711;SDS011;9485;49.386;8.674;2023-02-08T17:17:31;12.87;;;8.53;;
18711;SDS011;9485;49.386;8.674;2023-02-08T17:22:52;14.80;;;9.13;;
18711;SDS011;9485;49.386;8.674;2023-02-08T17:28:16;12.53;;;8.40;;
18711;SDS011;9485;49.386;8.674;2023-02-08T17:33:40;13.23;;;9.40;;
18711;SDS011;9485;49.386;8.674;2023-02-08T17:39:01;14.47;;;9.53;;
18711;SDS011;9485;49.386;8.674;2023-02-08T17:44:24;14.60;;;8.63;;
18711;SDS011;9485;49.386;8.674;2023-02-08T17:49:46;13.37;;;8.67;;
18711;SDS011;9485;49.386;8.674;2023-02-08T17:55:07;13.10;;;8.70;;
18711;SDS011;9485;49.386;8.674;2023-02-08T18:00:31;13.07;;;8.90;;
18711;SDS011;9485;49.386;8.674;2023-02-08T18:05:56;12.87;;;7.57;;
18711;SDS011;9485;49.386;8.674;2023-02-08T18:11:19;16.43;;;9.57;;
18711;SDS011;9485;49.386;8.674;2023-02-08T18:16:41;14.53;;;8.53;;
18711;SDS011;9485;49.386;8.674;2023-02-08T18:22:03;14.57;;;7.87;;
18711;SDS011;9485;49.386;8.674;2023-02-08T18:27:24;15.57;;;8.93;;
18711;SDS011;9485;49.386;8.674;2023-02-08T18:32:46;13.63;;;8.90;;
18711;SDS011;9485;49.386;8.674;2023-02-08T18:38:07;13.40;;;8.60;;
18711;SDS011;9485;49.386;8.674;2023-02-08T18:43:28;15.10;;;8.77;;
18711;SDS011;9485;49.386;8.674;2023-02-08T18:48:49;11.73;;;8.33;;
18711;SDS011;9485;49.386;8.674;2023-02-08T18:54:15;12.30;;;8.30;;
18711;SDS011;9485;49.386;8.674;2023-02-08T18:59:37;14.50;;;8.23;;
18711;SDS011;9485;49.386;8.674;2023-02-08T19:04:58;13.23;;;8.47;;
18711;SDS011;9485;49.386;8.674;2023-02-08T19:10:19;16.47;;;9.33;;
18711;SDS011;9485;49.386;8.674;2023-02-08T19:15:40;15.27;;;9.07;;
18711;SDS011;9485;49.386;8.674;2023-02-08T19:21:02;11.70;;;8.90;;
18711;SDS011;9485;49.386;8.674;2023-02-08T19:26:27;14.53;;;9.10;;
18711;SDS011;9485;49.386;8.674;2023-02-08T19:31:50;12.87;;;8.87;;
18711;SDS011;9485;49.386;8.674;2023-02-08T19:37:11;10.37;;;7.60;;
18711;SDS011;9485;49.386;8.674;2023-02-08T19:42:33;11.37;;;7.60;;
18711;SDS011;9485;49.386;8.674;2023-02-08T19:47:54;9.00;;;6.87;;
18711;SDS011;9485;49.386;8.674;2023-02-08T19:53:14;10.43;;;7.63;;
18711;SDS011;9485;49.386;8.674;2023-02-08T19:58:36;15.10;;;7.80;;
18711;SDS011;9485;49.386;8.674;2023-02-08T20:03:58;12.43;;;8.47;;
18711;SDS011;9485;49.386;8.674;2023-02-08T20:09:19;9.47;;;7.10;;
18711;SDS011;9485;49.386;8.674;2023-02-08T20:14:41;9.20;;;6.77;;
18711;SDS011;9485;49.386;8.674;2023-02-08T20:20:02;10.40;;;6.70;;
18711;SDS011;9485;49.386;8.674;2023-02-08T20:25:23;15.67;;;8.23;;
18711;SDS011;9485;49.386;8.674;2023-02-08T20:30:46;11.37;;;7.30;;
18711;SDS011;9485;49.386;8.674;2023-02-08T20:36:07;12.77;;;7.97;;
18711;SDS011;9485;49.386;8.674;2023-02-08T20:41:29;14.07;;;8.50;;
18711;SDS011;9485;49.386;8.674;2023-02-08T20:46:53;12.03;;;7.97;;
18711;SDS011;9485;49.386;8.674;2023-02-08T20:52:14;13.43;;;8.03;;
18711;SDS011;9485;49.386;8.674;2023-02-08T20:57:35;12.70;;;7.77;;
18711;SDS011;9485;49.386;8.674;2023-02-08T21:02:57;15.17;;;8.73;;
18711;SDS011;9485;49.386;8.674;2023-02-08T21:08:18;15.10;;;9.00;;
18711;SDS011;9485;49.386;8.674;2023-02-08T21:13:40;14.23;;;9.53;;
18711;SDS011;9485;49.386;8.674;2023-02-08T21:19:01;13.30;;;8.37;;
18711;SDS011;9485;49.386;8.674;2023-02-08T21:24:22;16.17;;;10.30;;
18711;SDS011;9485;49.386;8.674;2023-02-08T21:29:43;14.50;;;9.83;;
18711;SDS011;9485;49.386;8.674;2023-02-08T21:35:06;13.87;;;8.83;;
18711;SDS011;9485;49.386;8.674;2023-02-08T21:40:26;14.67;;;9.27;;
18711;SDS011;9485;49.386;8.674;2023-02-08T21:45:47;14.87;;;8.53;;
18711;SDS011;9485;49.386;8.674;2023-02-08T21:51:09;14.60;;;9.17;;
18711;SDS011;9485;49.386;8.674;2023-02-08T21:56:47;13.40;;;7.57;;
18711;SDS011;9485;49.386;8.674;2023-02-08T22:02:09;13.47;;;8.93;;
18711;SDS011;9485;49.386;8.674;2023-02-08T22:07:42;15.20;;;9.37;;
18711;SDS011;9485;49.386;8.674;2023-02-08T22:13:07;14.70;;;8.40;;
18711;SDS011;9485;49.386;8.674;2023-02-08T22:18:30;14.33;;;9.00;;
18711;SDS011;9485;49.386;8.674;2023-02-08T22:23:52;15.90;;;8.83;;
18711;SDS011;9485;49.386;8.674;2023-02-08T22:29:13;13.27;;;9.20;;
18711;SDS011;9485;49.386;8.674;2023-02-08T22:34:35;15.83;;;8.57;;
18711;SDS011;9485;49.386;8.674;2023-02-08T22:39:57;13.03;;;7.13;;
18711;SDS011;9485;49.386;8.674;2023-02-08T22:45:18;14.57;;;8.87;;
18711;SDS011;9485;49.386;8.674;2023-02-08T22:50:39;14.37;;;9.13;;
18711;SDS011;9485;49.386;8.674;2023-02-08T22:56:01;15.27;;;9.50;;
18711;SDS011;9485;49.386;8.674;2023-02-08T23:01:23;13.50;;;8.43;;
18711;SDS011;9485;49.386;8.674;2023-02-08T23:06:45;14.97;;;9.10;;
18711;SDS011;9485;49.386;8.674;2023-02-08T23:12:07;12.50;;;7.87;;
18711;SDS011;9485;49.386;8.674;2023-02-08T23:17:28;14.33;;;8.30;;
18711;SDS011;9485;49.386;8.674;2023-02-08T23:22:48;15.03;;;8.67;;
18711;SDS011;9485;49.386;8.674;2023-02-08T23:28:11;11.80;;;8.53;;
18711;SDS011;9485;49.386;8.674;2023-02-08T23:33:32;13.37;;;8.30;;
18711;SDS011;9485;49.386;8.674;2023-02-08T23:38:53;10.73;;;7.00;;
18711;SDS011;9485;49.386;8.674;2023-02-08T23:44:16;10.73;;;7.00;;
18711;SDS011;9485;49.386;8.674;2023-02-08T23:49:36;12.57;;;7.73;;
18711;SDS011;9485;49.386;8.674;2023-02-08T23:54:57;13.07;;;7.63;;
